Terminal Aerodrome Forecast
Issued by NWS Medford, OR

Home | Current Version | Previous Version | Text Only | Print | Product List | Glossary On
Versions: 1 2 3 4 5 6 7 8 9 10 11 12 13 14 15 16 17 18
000
FTUS46 KMFR 290557
TAFMFR
TAF
KMFR 290557Z 2906/3006 VRB04KT 6SM HZ SCT100 BKN200
     FM291200 30009KT 6SM -RA BKN040 OVC060
     FM291500 30006KT P6SM -SHRA SCT035 BKN060
     FM291800 24008KT P6SM VCSH SCT060 BKN090
     FM300100 29008G16KT P6SM BKN050
     FM300400 VRB03KT P6SM SCT050=

USA.gov is the U.S. government's official web portal to all federal, state and local government web resources and services.